createdAt,value
2022-12-17T00:01:51.285Z,36.08
2022-12-17T00:04:37.809Z,37.78
2022-12-17T00:07:23.592Z,36.38
2022-12-17T00:10:09.544Z,35.90
2022-12-17T00:12:56.294Z,39.20
2022-12-17T00:15:42.833Z,37.10
2022-12-17T00:18:29.767Z,36.50
2022-12-17T00:21:19.218Z,37.75
2022-12-17T00:24:06.034Z,36.40
2022-12-17T00:26:52.087Z,38.03
2022-12-17T00:29:37.929Z,37.40
2022-12-17T00:32:24.271Z,37.08
2022-12-17T00:35:10.569Z,37.72
2022-12-17T00:37:57.763Z,40.03
2022-12-17T00:40:43.553Z,37.70
2022-12-17T00:43:32.714Z,35.85
2022-12-17T00:46:19.679Z,35.80
2022-12-17T00:49:07.190Z,37.08
2022-12-17T00:51:53.806Z,38.17
2022-12-17T00:54:39.784Z,38.63
2022-12-17T00:57:25.718Z,35.65
2022-12-17T01:00:13.165Z,36.20
2022-12-17T01:02:59.255Z,41.08
2022-12-17T01:05:45.395Z,35.75
2022-12-17T01:08:33.667Z,35.13
2022-12-17T01:11:26.209Z,34.35
2022-12-17T01:14:13.081Z,37.78
2022-12-17T01:17:00.296Z,34.65
2022-12-17T01:19:47.299Z,34.38
2022-12-17T01:22:33.150Z,33.17
2022-12-17T01:25:19.027Z,34.83
2022-12-17T01:28:09.461Z,33.88
2022-12-17T01:30:56.465Z,33.42
2022-12-17T01:33:43.206Z,34.15
2022-12-17T01:36:28.991Z,35.08
2022-12-17T01:39:15.332Z,31.95
2022-12-17T01:42:01.181Z,31.48
2022-12-17T01:45:14.566Z,33.90
2022-12-17T01:48:09.518Z,29.15
2022-12-17T01:51:00.700Z,29.98
2022-12-17T01:54:10.847Z,29.88
2022-12-17T01:57:00.399Z,31.58
2022-12-17T02:00:09.493Z,31.50
2022-12-17T02:03:02.024Z,32.17
2022-12-17T02:06:08.456Z,30.15
2022-12-17T02:09:36.242Z,29.88
2022-12-17T02:12:49.835Z,32.42
2022-12-17T02:15:49.276Z,32.42
2022-12-17T02:18:46.374Z,30.52
2022-12-17T02:21:32.588Z,32.88
2022-12-17T02:24:58.407Z,29.52
2022-12-17T02:27:45.786Z,29.63
2022-12-17T02:30:33.158Z,29.63
2022-12-17T02:33:19.883Z,30.50
2022-12-17T02:36:21.510Z,32.05
2022-12-17T02:39:07.476Z,29.55
2022-12-17T02:44:59.013Z,31.08
2022-12-17T02:47:47.018Z,31.65
2022-12-17T02:50:33.417Z,24.73
2022-12-17T02:53:21.137Z,31.92
2022-12-17T02:56:07.590Z,32.42
2022-12-17T02:58:56.501Z,33.78
2022-12-17T03:01:42.563Z,30.38
2022-12-17T03:04:28.569Z,33.15
2022-12-17T03:07:14.482Z,33.03
2022-12-17T03:10:01.523Z,31.75
2022-12-17T03:12:49.298Z,33.67
2022-12-17T03:15:35.247Z,37.13
2022-12-17T03:18:21.336Z,34.60
2022-12-17T03:21:11.204Z,31.75
2022-12-17T03:23:57.558Z,32.45
2022-12-17T03:26:43.565Z,35.95
2022-12-17T03:29:29.702Z,31.48
2022-12-17T03:32:15.758Z,36.25
2022-12-17T03:35:01.474Z,33.80
2022-12-17T03:37:47.387Z,32.83
2022-12-17T03:40:33.335Z,35.28
2022-12-17T03:43:25.955Z,33.90
2022-12-17T03:46:14.791Z,32.35
2022-12-17T03:49:00.724Z,33.55
2022-12-17T03:51:46.600Z,34.70
2022-12-17T03:54:32.403Z,35.85
2022-12-17T03:57:18.455Z,35.80
2022-12-17T04:00:04.477Z,35.95
2022-12-17T04:02:58.282Z,42.15
2022-12-17T04:05:44.418Z,37.05
2022-12-17T04:08:30.120Z,37.22
2022-12-17T04:11:16.048Z,39.38
2022-12-17T04:14:01.825Z,39.60
2022-12-17T04:16:48.408Z,38.38
2022-12-17T04:19:34.184Z,38.55
2022-12-17T04:22:20.011Z,38.10
2022-12-17T04:25:05.936Z,37.75
2022-12-17T04:27:51.676Z,44.00
2022-12-17T04:30:37.455Z,39.80
2022-12-17T04:33:23.537Z,38.97
2022-12-17T04:36:09.318Z,39.97
2022-12-17T04:38:55.407Z,39.08
2022-12-17T04:41:41.160Z,37.70
2022-12-17T04:44:27.099Z,39.08
2022-12-17T04:47:13.268Z,40.75
2022-12-17T04:49:59.084Z,38.00
2022-12-17T04:52:45.570Z,36.90
2022-12-17T04:55:31.435Z,38.90
2022-12-17T04:58:24.874Z,35.60
2022-12-17T05:01:11.702Z,35.42
2022-12-17T05:03:58.335Z,36.47
2022-12-17T05:06:45.249Z,35.60
2022-12-17T05:09:31.409Z,34.47
2022-12-17T05:12:17.343Z,38.53
2022-12-17T05:15:03.239Z,37.80
2022-12-17T05:17:49.025Z,37.30
2022-12-17T05:20:34.923Z,39.90
2022-12-17T05:23:26.104Z,35.92
2022-12-17T05:26:25.810Z,38.63
2022-12-17T05:29:22.294Z,40.00
2022-12-17T05:32:08.878Z,42.33
2022-12-17T05:34:54.736Z,44.10
2022-12-17T05:37:43.335Z,41.33
2022-12-17T05:40:29.967Z,41.92
2022-12-17T05:43:29.900Z,41.42
2022-12-17T05:46:18.923Z,37.70
2022-12-17T05:49:04.707Z,39.33
2022-12-17T05:51:50.603Z,40.15
2022-12-17T05:54:36.582Z,41.67
2022-12-17T05:57:23.443Z,41.22
2022-12-17T06:00:09.392Z,38.33
2022-12-17T06:02:58.575Z,41.97
2022-12-17T06:05:44.920Z,44.00
2022-12-17T06:08:30.795Z,41.38
2022-12-17T06:11:19.823Z,38.15
2022-12-17T06:14:06.093Z,42.72
2022-12-17T06:16:52.140Z,42.83
2022-12-17T06:19:37.908Z,40.03
2022-12-17T06:22:23.738Z,40.70
2022-12-17T06:25:09.629Z,44.70
2022-12-17T06:27:55.780Z,42.13
2022-12-17T06:30:41.561Z,43.33
2022-12-17T06:33:29.747Z,43.35
2022-12-17T06:36:22.121Z,44.50
2022-12-17T06:39:09.349Z,43.95
2022-12-17T06:42:02.019Z,42.50
2022-12-17T06:44:50.915Z,41.25
2022-12-17T06:47:51.100Z,43.05
2022-12-17T06:50:37.321Z,40.92
2022-12-17T06:53:25.639Z,44.28
2022-12-17T06:56:15.310Z,40.70
2022-12-17T06:59:01.317Z,42.17
2022-12-17T07:01:48.045Z,43.35
2022-12-17T07:04:33.991Z,40.67
2022-12-17T07:07:19.829Z,40.95
2022-12-17T07:10:09.342Z,38.05
2022-12-17T07:12:59.555Z,40.03
2022-12-17T07:15:45.437Z,41.65
2022-12-17T07:18:32.296Z,39.47
2022-12-17T07:21:18.054Z,38.85
2022-12-17T07:24:03.957Z,46.53
2022-12-17T07:26:50.445Z,39.83
2022-12-17T07:29:36.267Z,42.92
2022-12-17T07:32:22.167Z,41.95
2022-12-17T07:35:08.237Z,43.00
2022-12-17T07:37:53.936Z,40.25
2022-12-17T07:40:39.801Z,39.58
2022-12-17T07:43:30.800Z,42.03
2022-12-17T07:46:18.147Z,43.97
2022-12-17T07:49:04.335Z,44.85
2022-12-17T07:51:50.443Z,38.83
2022-12-17T07:54:36.159Z,38.88
2022-12-17T07:57:22.087Z,38.17
2022-12-17T08:00:07.819Z,38.45
2022-12-17T08:02:53.892Z,41.20
2022-12-17T08:05:41.121Z,39.78
2022-12-17T08:08:29.812Z,40.55
2022-12-17T08:11:15.623Z,39.80
2022-12-17T08:14:02.054Z,40.72
2022-12-17T08:16:47.923Z,38.20
2022-12-17T08:19:34.342Z,40.55
2022-12-17T08:22:20.195Z,41.80
2022-12-17T08:25:05.992Z,41.03
2022-12-17T08:27:52.252Z,41.88
2022-12-17T08:30:38.307Z,40.78
2022-12-17T08:33:26.132Z,37.33
2022-12-17T08:39:16.769Z,35.30
2022-12-17T08:42:07.477Z,41.40
2022-12-17T08:44:53.656Z,38.40
2022-12-17T08:47:39.561Z,40.75
2022-12-17T08:50:26.542Z,41.45
2022-12-17T08:53:23.035Z,41.30
2022-12-17T08:56:09.317Z,40.08
2022-12-17T08:58:59.084Z,37.85
2022-12-17T09:01:45.690Z,41.50
2022-12-17T09:04:31.676Z,43.40
2022-12-17T09:07:18.521Z,40.33
2022-12-17T09:10:06.209Z,46.92
2022-12-17T09:12:52.298Z,48.97
2022-12-17T09:15:38.171Z,45.00
2022-12-17T09:18:23.922Z,44.78
2022-12-17T09:21:13.809Z,40.92
2022-12-17T09:24:00.173Z,42.30
2022-12-17T09:26:46.581Z,45.60
2022-12-17T09:29:32.407Z,39.15
2022-12-17T09:32:18.521Z,42.25
2022-12-17T09:35:04.433Z,42.30
2022-12-17T09:37:50.522Z,39.30
2022-12-17T09:40:41.876Z,40.13
2022-12-17T09:43:47.703Z,41.17
2022-12-17T09:47:10.934Z,43.67
2022-12-17T09:49:57.630Z,45.58
2022-12-17T09:52:47.737Z,41.00
2022-12-17T09:56:02.766Z,46.10
2022-12-17T09:58:49.457Z,45.30
2022-12-17T10:02:01.895Z,41.60
2022-12-17T10:04:56.533Z,44.05
2022-12-17T10:07:52.606Z,42.35
2022-12-17T10:10:49.773Z,40.13
2022-12-17T10:13:40.363Z,38.77
2022-12-17T10:16:51.863Z,38.40
2022-12-17T10:19:54.413Z,39.80
2022-12-17T10:22:40.861Z,41.42
2022-12-17T10:25:40.473Z,39.50
2022-12-17T10:28:35.817Z,40.30
2022-12-17T10:31:39.815Z,44.60
2022-12-17T10:34:31.471Z,41.38
2022-12-17T10:37:17.355Z,39.60
2022-12-17T10:40:12.288Z,39.65
2022-12-17T10:42:59.525Z,46.88
2022-12-17T10:46:11.410Z,41.63
2022-12-17T10:48:57.193Z,44.60
2022-12-17T10:51:55.393Z,41.50
2022-12-17T10:54:49.406Z,40.28
2022-12-17T10:57:56.510Z,38.35
2022-12-17T11:00:52.506Z,41.72
2022-12-17T11:04:14.439Z,42.05
2022-12-17T11:07:05.409Z,39.90
2022-12-17T11:10:08.655Z,38.42
2022-12-17T11:13:15.887Z,38.30
2022-12-17T11:16:14.082Z,43.50
2022-12-17T11:19:30.346Z,41.00
2022-12-17T11:22:26.077Z,38.40
2022-12-17T11:25:26.504Z,38.92
2022-12-17T11:28:38.367Z,39.63
2022-12-17T11:32:12.159Z,42.42
2022-12-17T11:35:52.451Z,39.47
2022-12-17T11:39:01.329Z,37.78
2022-12-17T11:45:17.995Z,35.63
2022-12-17T11:48:25.528Z,41.28
2022-12-17T11:51:33.227Z,35.90
2022-12-17T11:54:43.036Z,41.42
2022-12-17T11:57:38.698Z,37.53
2022-12-17T12:00:42.331Z,38.72
2022-12-17T12:03:55.869Z,33.20
2022-12-17T12:06:46.865Z,35.88
2022-12-17T12:10:19.473Z,38.95
2022-12-17T12:13:44.541Z,38.85
2022-12-17T12:17:12.342Z,38.67
2022-12-17T12:20:41.163Z,38.90
2022-12-17T12:23:55.443Z,41.35
2022-12-17T12:26:56.578Z,36.30
2022-12-17T12:30:26.696Z,35.78
2022-12-17T12:33:41.581Z,37.80
2022-12-17T12:36:31.013Z,40.65
2022-12-17T12:39:17.830Z,37.35
2022-12-17T12:42:16.839Z,40.97
2022-12-17T12:45:25.396Z,36.15
2022-12-17T12:48:58.141Z,36.40
2022-12-17T12:51:49.206Z,37.08
2022-12-17T12:55:05.046Z,39.65
2022-12-17T12:57:51.162Z,38.38
2022-12-17T13:01:07.702Z,35.58
2022-12-17T13:04:11.063Z,37.13
2022-12-17T13:06:56.369Z,37.97
2022-12-17T13:09:34.813Z,36.42
2022-12-17T13:12:02.861Z,38.22
2022-12-17T13:14:33.721Z,39.55
2022-12-17T13:17:04.075Z,36.85
2022-12-17T13:19:31.414Z,40.72
2022-12-17T13:22:23.979Z,36.53
2022-12-17T13:24:55.506Z,38.97
2022-12-17T13:27:36.339Z,37.22
2022-12-17T13:30:18.104Z,38.72
2022-12-17T13:33:02.206Z,38.90
2022-12-17T13:36:06.134Z,42.75
2022-12-17T13:39:13.774Z,34.13
2022-12-17T13:41:41.379Z,35.55
2022-12-17T13:44:29.635Z,36.58
2022-12-17T13:46:57.177Z,34.35
2022-12-17T13:49:30.203Z,37.13
2022-12-17T13:52:23.797Z,36.90
2022-12-17T13:54:51.779Z,34.67
2022-12-17T13:57:25.911Z,36.92
2022-12-17T13:59:56.775Z,38.60
2022-12-17T14:02:29.489Z,41.08
2022-12-17T14:05:05.663Z,40.50
2022-12-17T14:07:39.057Z,35.83
2022-12-17T14:10:18.140Z,34.88
2022-12-17T14:12:47.092Z,37.40
2022-12-17T14:15:29.984Z,40.00
2022-12-17T14:17:59.235Z,38.42
2022-12-17T14:20:36.178Z,37.35
2022-12-17T14:23:23.105Z,38.17
2022-12-17T14:25:50.851Z,36.60
2022-12-17T14:28:37.446Z,40.33
2022-12-17T14:31:28.691Z,36.70
2022-12-17T14:34:10.916Z,37.25
2022-12-17T14:36:43.780Z,37.20
2022-12-17T14:39:30.918Z,36.90
2022-12-17T14:42:27.001Z,35.40
2022-12-17T14:45:06.290Z,35.50
2022-12-17T14:47:36.687Z,33.60
2022-12-17T14:50:07.426Z,35.88
2022-12-17T14:52:53.100Z,39.80
2022-12-17T14:55:37.971Z,37.50
2022-12-17T14:58:13.898Z,34.78
2022-12-17T15:00:59.919Z,35.03
2022-12-17T15:03:31.735Z,42.05
2022-12-17T15:06:03.360Z,35.63
2022-12-17T15:08:34.862Z,36.70
2022-12-17T15:11:03.032Z,40.90
2022-12-17T15:13:30.411Z,35.35
2022-12-17T15:15:58.207Z,38.78
2022-12-17T15:18:26.083Z,37.33
2022-12-17T15:20:53.627Z,35.53
2022-12-17T15:23:23.900Z,35.58
2022-12-17T15:25:52.853Z,36.13
2022-12-17T15:28:22.025Z,34.63
2022-12-17T15:30:50.128Z,34.33
2022-12-17T15:33:18.012Z,38.15
2022-12-17T15:35:45.560Z,35.13
2022-12-17T15:38:13.294Z,35.70
2022-12-17T15:40:41.454Z,34.38
2022-12-17T15:43:13.085Z,34.75
2022-12-17T15:45:45.623Z,34.20
2022-12-17T15:48:16.015Z,37.88
2022-12-17T15:50:43.442Z,38.10
2022-12-17T15:53:11.047Z,36.83
2022-12-17T15:55:39.183Z,35.38
2022-12-17T15:58:07.624Z,35.35
2022-12-17T16:00:35.402Z,36.33
2022-12-17T16:03:04.359Z,38.00
2022-12-17T16:05:32.107Z,37.35
2022-12-17T16:08:02.496Z,37.78
2022-12-17T16:10:30.648Z,35.95
2022-12-17T16:12:58.421Z,37.92
2022-12-17T16:15:25.909Z,37.80
2022-12-17T16:17:53.421Z,40.47
2022-12-17T16:20:22.486Z,39.20
2022-12-17T16:22:50.226Z,37.70
2022-12-17T16:25:17.717Z,39.50
2022-12-17T16:27:45.406Z,36.65
2022-12-17T16:30:13.568Z,36.28
2022-12-17T16:32:41.031Z,40.80
2022-12-17T16:35:08.819Z,35.38
2022-12-17T16:37:36.215Z,39.30
2022-12-17T16:40:04.027Z,39.55
2022-12-17T16:42:31.451Z,39.67
2022-12-17T16:44:58.932Z,39.17
2022-12-17T16:47:26.485Z,42.22
2022-12-17T16:49:53.959Z,41.22
2022-12-17T16:52:21.417Z,41.00
2022-12-17T16:54:48.842Z,43.03
2022-12-17T16:57:16.247Z,43.50
2022-12-17T16:59:43.679Z,39.95
2022-12-17T17:02:15.801Z,38.03
2022-12-17T17:04:43.375Z,42.78
2022-12-17T17:07:10.772Z,43.63
2022-12-17T17:09:38.958Z,47.75
2022-12-17T17:12:08.943Z,46.47
2022-12-17T17:14:36.419Z,41.80
2022-12-17T17:17:03.904Z,43.15
2022-12-17T17:19:31.305Z,42.00
2022-12-17T17:21:58.783Z,42.97
2022-12-17T17:24:26.585Z,43.78
2022-12-17T17:26:55.325Z,44.38
2022-12-17T17:29:23.103Z,41.83
2022-12-17T17:32:09.960Z,42.13
2022-12-17T17:34:39.128Z,38.72
2022-12-17T17:37:06.541Z,36.35
2022-12-17T17:39:34.352Z,37.42
2022-12-17T17:42:02.233Z,42.60
2022-12-17T17:44:29.687Z,43.28
2022-12-17T17:46:57.366Z,38.97
2022-12-17T17:49:25.231Z,41.15
2022-12-17T17:52:08.820Z,47.17
2022-12-17T17:54:36.813Z,41.95
2022-12-17T17:57:04.222Z,37.35
2022-12-17T17:59:34.169Z,45.38
2022-12-17T18:02:03.308Z,43.40
2022-12-17T18:04:31.543Z,37.83
2022-12-17T18:09:46.590Z,41.00
2022-12-17T18:12:32.676Z,41.45
2022-12-17T18:15:17.349Z,43.30
2022-12-17T18:17:49.212Z,36.40
2022-12-17T18:20:16.987Z,37.05
2022-12-17T18:22:46.275Z,39.53
2022-12-17T18:25:15.298Z,41.97
2022-12-17T18:27:44.055Z,42.55
2022-12-17T18:30:13.066Z,39.17
2022-12-17T18:32:41.831Z,43.10
2022-12-17T18:35:09.607Z,46.35
2022-12-17T18:37:37.488Z,39.70
2022-12-17T18:40:07.081Z,39.13
2022-12-17T18:42:53.551Z,45.22
2022-12-17T18:45:20.973Z,43.63
2022-12-17T18:47:48.417Z,43.38
2022-12-17T18:50:15.856Z,44.13
2022-12-17T18:52:43.338Z,40.95
2022-12-17T18:55:11.439Z,40.38
2022-12-17T18:57:38.951Z,42.67
2022-12-17T19:00:07.085Z,42.15
2022-12-17T19:02:34.634Z,40.55
2022-12-17T19:05:02.113Z,46.63
2022-12-17T19:07:29.599Z,41.53
2022-12-17T19:09:57.039Z,34.53
2022-12-17T19:12:24.466Z,35.15
2022-12-17T19:14:51.820Z,38.25
2022-12-17T19:17:19.231Z,37.10
2022-12-17T19:19:47.808Z,36.58
2022-12-17T19:22:15.162Z,41.30
2022-12-17T19:24:42.620Z,42.30
2022-12-17T19:27:10.029Z,48.97
2022-12-17T19:29:37.488Z,53.88
2022-12-17T19:32:05.081Z,42.15
2022-12-17T19:34:35.002Z,43.85
2022-12-17T19:37:03.189Z,43.85
2022-12-17T19:39:30.593Z,44.00
2022-12-17T19:41:57.969Z,42.95
2022-12-17T19:44:25.508Z,41.55
2022-12-17T19:46:52.911Z,39.13
2022-12-17T19:49:20.283Z,45.20
2022-12-17T19:51:47.689Z,37.80
2022-12-17T19:54:15.602Z,44.83
2022-12-17T19:56:44.713Z,41.53
2022-12-17T19:59:13.932Z,40.50
2022-12-17T20:01:45.626Z,38.53
2022-12-17T20:04:15.870Z,40.13
2022-12-17T20:06:44.643Z,39.55
2022-12-17T20:09:12.521Z,38.22
2022-12-17T20:11:40.475Z,42.72
2022-12-17T20:14:36.110Z,40.72
2022-12-17T20:17:05.059Z,43.88
2022-12-17T20:19:34.640Z,38.03
2022-12-17T20:22:04.501Z,38.53
2022-12-17T20:24:32.673Z,41.72
2022-12-17T20:27:00.993Z,37.70
2022-12-17T20:29:29.162Z,35.78
2022-12-17T20:31:56.896Z,44.30
2022-12-17T20:34:25.268Z,43.28
2022-12-17T20:36:53.896Z,47.20
2022-12-17T20:39:26.646Z,45.00
2022-12-17T20:41:55.143Z,42.17
2022-12-17T20:44:22.572Z,41.97
2022-12-17T20:46:49.958Z,43.30
2022-12-17T20:49:17.439Z,50.00
2022-12-17T20:51:44.884Z,43.17
2022-12-17T20:54:12.541Z,47.78
2022-12-17T20:56:40.715Z,38.50
2022-12-17T20:59:13.161Z,41.00
2022-12-17T21:01:40.804Z,40.65
2022-12-17T21:04:08.631Z,46.10
2022-12-17T21:06:45.820Z,44.78
2022-12-17T21:11:42.451Z,42.22
2022-12-17T21:14:14.160Z,43.22
2022-12-17T21:16:43.195Z,45.60
2022-12-17T21:19:14.551Z,44.85
2022-12-17T21:21:42.013Z,45.13
2022-12-17T21:24:09.871Z,43.58
2022-12-17T21:26:40.908Z,39.63
2022-12-17T21:29:11.221Z,41.42
2022-12-17T21:31:48.471Z,39.42
2022-12-17T21:34:22.052Z,43.70
2022-12-17T21:36:50.582Z,41.85
2022-12-17T21:39:18.929Z,44.03
2022-12-17T21:42:06.319Z,44.55
2022-12-17T21:44:34.001Z,42.20
2022-12-17T21:47:02.275Z,43.33
2022-12-17T21:49:30.016Z,41.25
2022-12-17T21:51:59.366Z,38.60
2022-12-17T21:54:26.993Z,42.30
2022-12-17T21:56:54.654Z,35.50
2022-12-17T21:59:22.444Z,40.95
2022-12-17T22:01:50.900Z,34.33
2022-12-17T22:04:18.655Z,35.28
2022-12-17T22:06:55.006Z,35.20
2022-12-17T22:09:33.977Z,35.38
2022-12-17T22:12:34.564Z,31.00
2022-12-17T22:15:02.050Z,33.90
2022-12-17T22:17:29.916Z,31.45
2022-12-17T22:19:57.318Z,33.25
2022-12-17T22:22:24.790Z,32.53
2022-12-17T22:24:52.224Z,34.03
2022-12-17T22:27:19.662Z,36.17
2022-12-17T22:30:05.499Z,34.30
2022-12-17T22:32:51.399Z,34.10
2022-12-17T22:36:09.240Z,32.83
2022-12-17T22:42:19.615Z,34.08
2022-12-17T22:44:35.299Z,34.08
2022-12-17T22:44:36.805Z,33.90
2022-12-17T22:46:31.694Z,34.00
2022-12-17T22:48:59.324Z,33.65
2022-12-17T22:51:37.908Z,34.42
2022-12-17T22:54:08.342Z,34.38
2022-12-17T22:56:51.132Z,33.55
2022-12-17T22:59:25.722Z,33.30
2022-12-17T23:01:53.219Z,32.17
2022-12-17T23:04:22.150Z,32.75
2022-12-17T23:06:49.650Z,36.03
2022-12-17T23:09:19.419Z,30.85
2022-12-17T23:11:48.572Z,32.28
2022-12-17T23:14:17.169Z,35.17
2022-12-17T23:16:45.356Z,33.58
2022-12-17T23:19:13.422Z,33.08
2022-12-17T23:21:40.875Z,33.90
2022-12-17T23:24:08.720Z,33.88
2022-12-17T23:26:37.775Z,35.40
2022-12-17T23:29:08.669Z,33.63
2022-12-17T23:31:40.265Z,35.30
2022-12-17T23:34:08.184Z,35.17
2022-12-17T23:36:36.393Z,36.45
2022-12-17T23:39:04.374Z,34.15
2022-12-17T23:41:32.379Z,37.03
2022-12-17T23:44:00.335Z,35.67
2022-12-17T23:46:30.096Z,33.72
2022-12-17T23:48:57.909Z,35.15
2022-12-17T23:51:26.106Z,33.65
2022-12-17T23:53:54.047Z,36.45
2022-12-17T23:56:26.574Z,33.13
2022-12-17T23:59:01.483Z,33.20
